TimeCDT,TemperatureF,Dew PointF,Humidity,Sea Level PressureIn,VisibilityMPH,Wind Direction,Wind SpeedMPH,Gust SpeedMPH,PrecipitationIn,Events,Conditions,WindDirDegrees,DateUTC
1:15 AM,41.0,21.2,45,30.22,10.0,ENE,10.4,-,N/A,,Clear,70,2013-05-09 06:15:00
2:35 AM,39.2,23.0,52,30.23,10.0,East,8.1,-,N/A,,Clear,80,2013-05-09 07:35:00
3:15 AM,39.2,24.8,56,30.23,10.0,East,8.1,-,N/A,,Clear,80,2013-05-09 08:15:00
3:35 AM,39.2,24.8,56,30.23,10.0,East,6.9,-,N/A,,Clear,80,2013-05-09 08:35:00
4:35 AM,37.4,24.8,60,30.23,10.0,ENE,6.9,-,N/A,,Partly Cloudy,60,2013-05-09 09:35:00
4:55 AM,35.6,24.8,65,30.24,10.0,ENE,4.6,-,N/A,,Partly Cloudy,60,2013-05-09 09:55:00
6:55 AM,28.4,23.0,80,30.25,10.0,East,3.5,-,N/A,,Clear,80,2013-05-09 11:55:00
7:35 AM,32.0,23.0,69,30.26,10.0,East,5.8,-,N/A,,Clear,80,2013-05-09 12:35:00
8:55 AM,39.2,23.0,52,30.27,10.0,East,8.1,-,N/A,,Mostly Cloudy,90,2013-05-09 13:55:00
9:15 AM,39.2,23.0,52,30.27,10.0,East,9.2,-,N/A,,Mostly Cloudy,100,2013-05-09 14:15:00
9:35 AM,42.8,23.0,46,30.27,10.0,East,12.7,-,N/A,,Partly Cloudy,90,2013-05-09 14:35:00
10:35 AM,44.6,23.0,43,30.26,10.0,East,8.1,-,N/A,,Partly Cloudy,100,2013-05-09 15:35:00
10:55 AM,48.2,23.0,37,30.26,10.0,ESE,11.5,-,N/A,,Scattered Clouds,110,2013-05-09 15:55:00
11:15 AM,48.2,23.0,37,30.25,10.0,SSE,10.4,-,N/A,,Scattered Clouds,160,2013-05-09 16:15:00
11:35 AM,48.2,23.0,37,30.25,10.0,ESE,9.2,-,N/A,,Mostly Cloudy,120,2013-05-09 16:35:00
11:55 AM,50.0,23.0,35,30.25,10.0,East,8.1,-,N/A,,Mostly Cloudy,100,2013-05-09 16:55:00
12:15 PM,53.6,23.0,30,30.24,10.0,ESE,10.4,-,N/A,,Scattered Clouds,120,2013-05-09 17:15:00
12:55 PM,55.4,23.0,29,30.23,10.0,SE,10.4,-,N/A,,Clear,140,2013-05-09 17:55:00
1:15 PM,55.4,23.0,29,30.23,10.0,SE,15.0,19.6,N/A,,Partly Cloudy,130,2013-05-09 18:15:00
2:35 PM,57.2,19.4,23,30.21,10.0,SE,6.9,-,N/A,,Clear,130,2013-05-09 19:35:00
3:15 PM,59.0,17.6,20,30.19,10.0,SE,12.7,-,N/A,,Clear,140,2013-05-09 20:15:00
3:35 PM,60.8,19.4,20,30.18,10.0,East,12.7,-,N/A,,Clear,100,2013-05-09 20:35:00
3:55 PM,62.6,17.6,18,30.18,10.0,SSE,9.2,16.1,N/A,,Clear,160,2013-05-09 20:55:00
4:15 PM,60.8,17.6,19,30.17,10.0,East,6.9,-,N/A,,Clear,90,2013-05-09 21:15:00
4:35 PM,60.8,15.8,17,30.16,10.0,ESE,8.1,-,N/A,,Clear,120,2013-05-09 21:35:00
4:55 PM,60.8,15.8,17,30.15,10.0,ESE,8.1,-,N/A,,Clear,120,2013-05-09 21:55:00
5:15 PM,62.6,15.8,16,30.15,10.0,ESE,8.1,-,N/A,,Clear,110,2013-05-09 22:15:00
5:35 PM,62.6,15.8,16,30.14,10.0,South,8.1,-,N/A,,Clear,170,2013-05-09 22:35:00
5:55 PM,62.6,15.8,16,30.14,10.0,ESE,10.4,-,N/A,,Clear,120,2013-05-09 22:55:00
6:15 PM,62.6,15.8,16,30.13,10.0,ESE,5.8,-,N/A,,Clear,110,2013-05-09 23:15:00
6:35 PM,62.6,17.6,18,30.13,10.0,East,8.1,-,N/A,,Clear,100,2013-05-09 23:35:00
6:55 PM,62.6,17.6,18,30.13,10.0,East,4.6,-,N/A,,Clear,100,2013-05-09 23:55:00
7:15 PM,62.6,19.4,19,30.13,10.0,South,4.6,-,N/A,,Clear,170,2013-05-10 00:15:00
7:35 PM,62.6,19.4,19,30.13,10.0,ESE,5.8,-,N/A,,Clear,120,2013-05-10 00:35:00
7:55 PM,60.8,19.4,20,30.13,10.0,ESE,5.8,-,N/A,,Clear,110,2013-05-10 00:55:00
8:15 PM,60.8,23.0,23,30.13,10.0,SE,8.1,-,N/A,,Clear,130,2013-05-10 01:15:00
8:35 PM,59.0,23.0,25,30.13,10.0,SE,8.1,-,N/A,,Clear,130,2013-05-10 01:35:00
8:55 PM,55.4,19.4,25,30.13,10.0,ESE,8.1,-,N/A,,Clear,110,2013-05-10 01:55:00
9:15 PM,50.0,21.2,32,30.13,10.0,ESE,8.1,-,N/A,,Clear,120,2013-05-10 02:15:00
9:35 PM,48.2,19.4,32,30.13,10.0,ESE,9.2,-,N/A,,Clear,120,2013-05-10 02:35:00
9:55 PM,48.2,17.6,30,30.14,10.0,ESE,8.1,-,N/A,,Clear,120,2013-05-10 02:55:00
10:15 PM,46.4,17.6,32,30.14,10.0,ESE,9.2,-,N/A,,Clear,120,2013-05-10 03:15:00
10:55 PM,46.4,17.6,32,30.14,10.0,ESE,9.2,-,N/A,,Clear,120,2013-05-10 03:55:00
11:15 PM,44.6,17.6,34,30.14,10.0,ESE,8.1,-,N/A,,Clear,120,2013-05-10 04:15:00
11:35 PM,44.6,17.6,34,30.14,10.0,ESE,6.9,-,N/A,,Clear,120,2013-05-10 04:35:00